createdAt,value
2018-04-12T00:02:22.014Z,15.34
2018-04-12T00:04:52.990Z,15.38
2018-04-12T00:07:23.975Z,15.38
2018-04-12T00:09:54.952Z,15.41
2018-04-12T00:12:25.928Z,15.47
2018-04-12T00:14:56.891Z,15.48
2018-04-12T00:17:27.825Z,15.53
2018-04-12T00:19:58.805Z,15.50
2018-04-12T00:22:29.781Z,15.51
2018-04-12T00:25:00.802Z,15.52
2018-04-12T00:27:31.753Z,15.49
2018-04-12T00:30:02.750Z,15.50
2018-04-12T00:32:33.700Z,15.48
2018-04-12T00:35:04.675Z,15.45
2018-04-12T00:37:35.640Z,15.38
2018-04-12T00:40:06.625Z,15.31
2018-04-12T00:42:37.586Z,15.31
2018-04-12T00:45:08.558Z,15.33
2018-04-12T00:47:39.530Z,15.30
2018-04-12T00:50:10.503Z,15.34
2018-04-12T00:52:41.470Z,15.30
2018-04-12T00:55:12.435Z,15.37
2018-04-12T00:57:43.429Z,15.37
2018-04-12T01:00:14.370Z,15.35
2018-04-12T01:02:45.380Z,15.32
2018-04-12T01:05:16.348Z,15.30
2018-04-12T01:07:47.360Z,15.21
2018-04-12T01:10:18.335Z,15.21
2018-04-12T01:12:49.367Z,15.22
2018-04-12T01:15:20.330Z,15.24
2018-04-12T01:17:51.314Z,15.29
2018-04-12T01:20:22.284Z,15.30
2018-04-12T01:22:53.287Z,15.34
2018-04-12T01:25:24.240Z,15.34
2018-04-12T01:27:55.243Z,15.41
2018-04-12T01:30:26.244Z,15.40
2018-04-12T01:33:09.612Z,15.37
2018-04-12T01:35:40.637Z,15.29
2018-04-12T01:38:11.631Z,15.28
2018-04-12T01:40:42.605Z,15.21
2018-04-12T01:43:13.630Z,15.13
2018-04-12T01:45:44.637Z,15.08
2018-04-12T01:48:15.610Z,14.97
2018-04-12T01:50:46.622Z,14.93
2018-04-12T01:53:17.702Z,14.95
2018-04-12T01:55:48.660Z,14.97
2018-04-12T01:58:19.634Z,14.95
2018-04-12T02:00:50.603Z,14.93
2018-04-12T02:03:21.647Z,14.86
2018-04-12T02:05:52.684Z,14.87
2018-04-12T02:08:23.736Z,14.91
2018-04-12T02:10:54.779Z,14.90
2018-04-12T02:13:25.814Z,14.93
2018-04-12T02:15:56.784Z,14.89
2018-04-12T02:18:27.792Z,14.88
2018-04-12T02:20:58.800Z,14.95
2018-04-12T02:23:29.808Z,14.94
2018-04-12T02:26:00.799Z,14.98
2018-04-12T02:28:31.797Z,14.97
2018-04-12T02:31:02.774Z,14.97
2018-04-12T02:33:33.762Z,15.06
2018-04-12T02:36:04.814Z,15.11
2018-04-12T02:38:35.791Z,15.15
2018-04-12T02:41:06.816Z,15.22
2018-04-12T02:43:37.791Z,15.29
2018-04-12T02:46:08.834Z,15.29
2018-04-12T02:48:39.839Z,15.26
2018-04-12T02:51:10.814Z,15.20
2018-04-12T02:53:41.802Z,15.17
2018-04-12T02:56:12.792Z,15.20
2018-04-12T02:58:43.772Z,15.21
2018-04-12T03:01:14.770Z,15.27
2018-04-12T03:03:45.878Z,15.24
2018-04-12T03:06:16.819Z,15.25
2018-04-12T03:08:47.861Z,15.23
2018-04-12T03:11:18.838Z,15.22
2018-04-12T03:13:49.898Z,15.25
2018-04-12T03:16:20.886Z,15.24
2018-04-12T03:18:51.883Z,15.23
2018-04-12T03:21:22.896Z,15.20
2018-04-12T03:23:53.865Z,15.17
2018-04-12T03:26:24.832Z,15.14
2018-04-12T03:28:55.840Z,15.05
2018-04-12T03:31:26.883Z,15.07
2018-04-12T03:33:57.901Z,15.06
2018-04-12T03:36:28.862Z,15.09
2018-04-12T03:38:59.808Z,15.03
2018-04-12T03:41:30.852Z,15.02
2018-04-12T03:44:01.869Z,15.08
2018-04-12T03:46:32.838Z,15.04
2018-04-12T03:49:03.953Z,15.02
2018-04-12T03:51:34.930Z,15.03
2018-04-12T03:54:05.979Z,15.01
2018-04-12T03:56:36.959Z,14.99
2018-04-12T03:59:07.957Z,14.99
2018-04-12T04:01:38.978Z,14.99
2018-04-12T04:04:09.972Z,14.97
2018-04-12T04:06:40.936Z,14.95
2018-04-12T04:09:11.905Z,14.94
2018-04-12T04:11:43.304Z,14.94
2018-04-12T04:14:26.555Z,14.93
2018-04-12T04:17:09.749Z,14.85
2018-04-12T04:19:52.904Z,14.84
2018-04-12T04:22:23.914Z,14.84
2018-04-12T04:24:54.891Z,14.85
2018-04-12T04:27:25.892Z,14.89
2018-04-12T04:29:56.898Z,14.91
2018-04-12T04:32:27.874Z,14.91
2018-04-12T04:34:58.882Z,14.89
2018-04-12T04:37:29.867Z,14.84
2018-04-12T04:40:00.908Z,14.87
2018-04-12T04:42:31.875Z,14.91
2018-04-12T04:45:02.918Z,14.94
2018-04-12T04:47:33.914Z,14.94
2018-04-12T04:50:04.948Z,14.97
2018-04-12T04:52:35.924Z,15.02
2018-04-12T04:55:06.937Z,15.03
2018-04-12T04:57:37.949Z,15.13
2018-04-12T05:00:08.948Z,15.17
2018-04-12T05:02:39.963Z,15.18
2018-04-12T05:05:10.994Z,15.23
2018-04-12T05:07:42.014Z,15.27
2018-04-12T05:10:13.051Z,15.25
2018-04-12T05:12:44.065Z,15.28
2018-04-12T05:15:15.010Z,15.28
2018-04-12T05:17:46.028Z,15.29
2018-04-12T05:20:17.040Z,15.32
2018-04-12T05:22:48.084Z,15.42
2018-04-12T05:25:19.063Z,15.51
2018-04-12T05:27:50.082Z,15.57
2018-04-12T05:30:21.096Z,15.69
2018-04-12T05:32:52.137Z,15.83
2018-04-12T05:35:23.108Z,16.00
2018-04-12T05:37:54.082Z,16.15
2018-04-12T05:40:25.063Z,16.32
2018-04-12T05:42:56.042Z,16.49
2018-04-12T05:45:27.035Z,16.63
2018-04-12T05:47:58.015Z,16.90
2018-04-12T05:50:28.978Z,17.09
2018-04-12T05:52:59.953Z,17.27
2018-04-12T05:55:30.934Z,17.46
2018-04-12T05:58:01.931Z,17.45
2018-04-12T06:00:32.948Z,17.47
2018-04-12T06:03:03.955Z,17.39
2018-04-12T06:05:34.948Z,17.37
2018-04-12T06:08:05.990Z,17.44
2018-04-12T06:10:37.012Z,17.48
2018-04-12T06:13:08.023Z,17.34
2018-04-12T06:15:39.034Z,17.23
2018-04-12T06:18:10.051Z,17.24
2018-04-12T06:20:41.021Z,17.24
2018-04-12T06:23:12.079Z,17.36
2018-04-12T06:25:43.087Z,17.44
2018-04-12T06:28:14.069Z,17.54
2018-04-12T06:30:45.060Z,17.60
2018-04-12T06:33:16.052Z,17.74
2018-04-12T06:35:47.062Z,17.92
2018-04-12T06:38:18.069Z,18.12
2018-04-12T06:40:49.070Z,18.28
2018-04-12T06:43:20.021Z,18.43
2018-04-12T06:45:51.010Z,18.60
2018-04-12T06:48:22.027Z,18.93
2018-04-12T06:50:53.051Z,19.54
2018-04-12T06:53:24.030Z,22.61
2018-04-12T06:55:55.056Z,28.30
2018-04-12T06:58:26.093Z,32.91
2018-04-12T07:00:57.057Z,36.30
2018-04-12T07:03:28.044Z,39.21
2018-04-12T07:05:59.124Z,40.97
2018-04-12T07:08:30.168Z,42.07
2018-04-12T07:11:01.196Z,43.01
2018-04-12T07:13:32.257Z,44.50
2018-04-12T07:16:03.236Z,45.48
2018-04-12T07:18:34.212Z,45.96
2018-04-12T07:21:05.188Z,46.56
2018-04-12T07:23:36.197Z,46.52
2018-04-12T07:26:07.279Z,46.38
2018-04-12T07:28:38.236Z,46.56
2018-04-12T07:31:09.282Z,47.34
2018-04-12T07:33:40.281Z,47.71
2018-04-12T07:38:36.499Z,48.84
2018-04-12T07:41:07.498Z,49.64
2018-04-12T07:43:38.516Z,49.63
2018-04-12T07:46:09.512Z,49.80
2018-04-12T07:48:40.518Z,49.34
2018-04-12T07:51:11.523Z,49.94
2018-04-12T07:53:42.581Z,50.78
2018-04-12T07:56:13.611Z,52.30
2018-04-12T07:58:44.632Z,51.91
2018-04-12T08:01:15.623Z,48.51
2018-04-12T08:03:46.609Z,43.31
2018-04-12T08:06:17.621Z,42.98
2018-04-12T08:08:48.639Z,46.10
2018-04-12T08:11:19.720Z,48.23
2018-04-12T08:13:50.739Z,50.71
2018-04-12T08:16:21.749Z,51.78
2018-04-12T08:18:52.746Z,52.91
2018-04-12T08:21:23.732Z,52.66
2018-04-12T08:23:54.715Z,52.82
2018-04-12T08:26:25.684Z,53.81
2018-04-12T08:28:56.727Z,54.63
2018-04-12T08:31:27.743Z,54.69
2018-04-12T08:33:58.823Z,54.33
2018-04-12T08:36:29.846Z,53.61
2018-04-12T08:39:00.878Z,54.80
2018-04-12T08:41:31.852Z,54.65
2018-04-12T08:44:02.848Z,55.13
2018-04-12T08:46:33.823Z,54.84
2018-04-12T08:49:04.787Z,54.00
2018-04-12T08:51:35.785Z,53.90
2018-04-12T08:54:06.775Z,53.09
2018-04-12T08:56:37.787Z,53.46
2018-04-12T08:59:08.817Z,53.54
2018-04-12T09:01:39.831Z,53.68
2018-04-12T09:04:10.817Z,53.66
2018-04-12T09:06:41.797Z,53.90
2018-04-12T09:09:12.840Z,52.14
2018-04-12T09:11:43.912Z,50.86
2018-04-12T09:14:14.942Z,48.43
2018-04-12T09:16:45.942Z,45.21
2018-04-12T09:19:16.899Z,42.62
2018-04-12T09:21:47.861Z,41.59
2018-04-12T09:24:18.877Z,40.39
2018-04-12T09:26:49.856Z,39.75
2018-04-12T09:29:20.877Z,38.79
2018-04-12T09:31:51.899Z,37.62
2018-04-12T09:34:22.866Z,37.21
2018-04-12T09:36:53.871Z,36.76
2018-04-12T09:39:24.882Z,36.09
2018-04-12T09:41:55.875Z,35.26
2018-04-12T09:44:26.897Z,34.78
2018-04-12T09:46:57.911Z,33.93
2018-04-12T09:49:28.946Z,33.32
2018-04-12T09:51:59.919Z,32.78
2018-04-12T09:54:30.895Z,32.10
2018-04-12T09:57:01.895Z,31.20
2018-04-12T09:59:32.903Z,31.41
2018-04-12T10:02:03.903Z,31.74
2018-04-12T10:04:40.889Z,31.56
2018-04-12T10:07:15.809Z,31.93
2018-04-12T10:09:46.813Z,32.46
2018-04-12T10:12:17.805Z,33.15
2018-04-12T10:14:48.803Z,34.56
2018-04-12T10:17:19.809Z,36.45
2018-04-12T10:19:50.819Z,37.79
2018-04-12T10:22:21.826Z,38.23
2018-04-12T10:24:52.769Z,37.89
2018-04-12T10:27:23.778Z,37.59
2018-04-12T10:29:54.808Z,38.03
2018-04-12T10:32:25.819Z,38.41
2018-04-12T10:34:56.838Z,38.55
2018-04-12T10:37:27.830Z,40.07
2018-04-12T10:39:58.810Z,41.09
2018-04-12T10:42:29.828Z,40.45
2018-04-12T10:45:00.889Z,38.71
2018-04-12T10:47:31.929Z,37.34
2018-04-12T10:50:02.963Z,36.55
2018-04-12T10:52:33.980Z,37.57
2018-04-12T10:55:04.975Z,39.49
2018-04-12T10:57:36.050Z,40.36
2018-04-12T11:00:07.067Z,40.58
2018-04-12T11:02:38.089Z,40.06
2018-04-12T11:05:09.045Z,39.08
2018-04-12T11:07:40.085Z,38.27
2018-04-12T11:10:11.073Z,37.58
2018-04-12T11:12:42.063Z,36.45
2018-04-12T11:17:43.139Z,34.39
2018-04-12T11:20:14.131Z,34.05
2018-04-12T11:22:45.148Z,33.48
2018-04-12T11:25:16.131Z,33.19
2018-04-12T11:27:47.120Z,32.56
2018-04-12T11:30:18.907Z,32.33
2018-04-12T11:32:49.877Z,32.03
2018-04-12T11:35:20.855Z,31.85
2018-04-12T11:37:51.827Z,32.49
2018-04-12T11:40:22.848Z,32.42
2018-04-12T11:42:53.918Z,31.91
2018-04-12T11:45:24.954Z,31.45
2018-04-12T11:47:55.945Z,31.51
2018-04-12T11:50:26.955Z,31.51
2018-04-12T11:52:57.938Z,31.24
2018-04-12T11:55:28.958Z,30.85
2018-04-12T11:57:59.949Z,30.81
2018-04-12T12:00:30.944Z,31.01
2018-04-12T12:03:01.977Z,31.28
2018-04-12T12:05:32.986Z,31.74
2018-04-12T12:08:04.032Z,32.26
2018-04-12T12:10:35.023Z,32.45
2018-04-12T12:13:06.051Z,32.46
2018-04-12T12:15:37.023Z,32.31
2018-04-12T12:18:07.960Z,32.50
2018-04-12T12:20:38.931Z,32.91
2018-04-12T12:23:09.907Z,32.92
2018-04-12T12:25:40.950Z,32.53
2018-04-12T12:28:11.960Z,32.03
2018-04-12T12:30:42.907Z,31.98
2018-04-12T12:33:13.930Z,32.23
2018-04-12T12:35:44.925Z,32.44
2018-04-12T12:38:15.912Z,32.13
2018-04-12T12:40:46.889Z,32.51
2018-04-12T12:43:17.891Z,32.68
2018-04-12T12:45:48.876Z,32.79
2018-04-12T12:48:19.905Z,33.04
2018-04-12T12:50:50.876Z,33.14
2018-04-12T12:53:21.892Z,32.95
2018-04-12T12:55:52.929Z,33.08
2018-04-12T12:58:23.907Z,33.19
2018-04-12T13:00:54.918Z,32.78
2018-04-12T13:03:25.879Z,32.91
2018-04-12T13:05:56.890Z,32.72
2018-04-12T13:08:27.870Z,32.55
2018-04-12T13:10:58.898Z,32.44
2018-04-12T13:13:29.986Z,32.30
2018-04-12T13:16:00.974Z,32.42
2018-04-12T13:18:32.027Z,32.70
2018-04-12T13:21:03.012Z,32.93
2018-04-12T13:23:34.044Z,32.42
2018-04-12T13:26:05.067Z,32.62
2018-04-12T13:28:36.114Z,33.30
2018-04-12T13:31:07.435Z,33.61
2018-04-12T13:33:38.439Z,34.01
2018-04-12T13:36:09.471Z,34.10
2018-04-12T13:38:40.504Z,33.52
2018-04-12T13:41:11.492Z,32.96
2018-04-12T13:43:42.552Z,32.64
2018-04-12T13:46:13.568Z,32.38
2018-04-12T13:48:44.562Z,31.78
2018-04-12T13:51:15.578Z,31.13
2018-04-12T13:53:46.608Z,30.05
2018-04-12T13:56:17.611Z,29.21
2018-04-12T13:58:48.610Z,28.47
2018-04-12T14:01:19.681Z,27.97
2018-04-12T14:03:50.702Z,27.38
2018-04-12T14:06:21.696Z,26.72
2018-04-12T14:08:52.655Z,26.29
2018-04-12T14:11:23.705Z,25.94
2018-04-12T14:13:54.684Z,25.76
2018-04-12T14:16:25.792Z,25.77
2018-04-12T14:18:56.799Z,25.79
2018-04-12T14:21:27.776Z,25.89
2018-04-12T14:23:58.804Z,26.05
2018-04-12T14:26:29.782Z,26.06
2018-04-12T14:29:00.780Z,26.25
2018-04-12T14:31:31.820Z,26.60
2018-04-12T14:34:02.843Z,27.04
2018-04-12T14:36:33.811Z,27.44
2018-04-12T14:39:04.927Z,27.90
2018-04-12T14:41:35.964Z,28.37
2018-04-12T14:44:08.562Z,28.89
2018-04-12T14:46:39.765Z,29.06
2018-04-12T14:49:10.765Z,28.96
2018-04-12T14:51:41.785Z,28.89
2018-04-12T14:54:19.011Z,28.71
2018-04-12T14:56:43.794Z,28.32
2018-04-12T14:59:14.748Z,27.98
2018-04-12T15:01:45.832Z,27.71
2018-04-12T15:04:16.826Z,27.41
2018-04-12T15:06:47.938Z,27.16
2018-04-12T15:09:18.905Z,27.03
2018-04-12T15:11:49.913Z,26.89
2018-04-12T15:14:20.971Z,26.79
2018-04-12T15:16:51.986Z,26.68
2018-04-12T15:19:22.967Z,26.39
2018-04-12T15:21:53.937Z,26.14
2018-04-12T15:24:24.929Z,25.90
2018-04-12T15:26:55.920Z,25.71
2018-04-12T15:29:26.931Z,25.62
2018-04-12T15:31:57.953Z,25.67
2018-04-12T15:34:28.934Z,25.78
2018-04-12T15:36:59.952Z,25.91
2018-04-12T15:39:31.108Z,25.99
2018-04-12T15:42:02.120Z,26.12
2018-04-12T15:44:33.102Z,26.15
2018-04-12T15:47:04.072Z,26.10
2018-04-12T15:49:35.083Z,26.05
2018-04-12T15:52:06.057Z,26.14
2018-04-12T15:54:37.244Z,26.11
2018-04-12T15:57:08.241Z,26.15
2018-04-12T15:59:39.251Z,26.26
2018-04-12T16:02:10.261Z,26.31
2018-04-12T16:04:41.270Z,26.35
2018-04-12T16:07:12.270Z,26.40
2018-04-12T16:09:43.300Z,26.33
2018-04-12T16:12:14.265Z,26.31
2018-04-12T16:14:47.348Z,26.04
2018-04-12T16:17:20.048Z,25.85
2018-04-12T16:19:53.836Z,25.74
2018-04-12T16:22:24.886Z,25.65
2018-04-12T16:24:55.862Z,25.50
2018-04-12T16:27:26.876Z,25.35
2018-04-12T16:29:57.878Z,25.21
2018-04-12T16:32:28.917Z,25.15
2018-04-12T16:34:59.927Z,25.03
2018-04-12T16:37:30.918Z,24.96
2018-04-12T16:40:01.956Z,24.92
2018-04-12T16:42:32.988Z,24.87
2018-04-12T16:45:04.052Z,24.77
2018-04-12T16:47:35.030Z,24.74
2018-04-12T16:50:06.114Z,24.75
2018-04-12T16:52:37.147Z,24.76
2018-04-12T16:55:08.196Z,24.70
2018-04-12T16:57:39.134Z,24.72
2018-04-12T17:00:10.213Z,24.69
2018-04-12T17:02:41.240Z,24.70
2018-04-12T17:05:12.209Z,24.69
2018-04-12T17:07:43.233Z,24.67
2018-04-12T17:10:14.349Z,24.69
2018-04-12T17:12:45.329Z,24.65
2018-04-12T17:15:17.483Z,24.52
2018-04-12T17:17:49.810Z,24.33
2018-04-12T17:20:21.916Z,24.19
2018-04-12T17:22:54.693Z,24.02
2018-04-12T17:25:25.934Z,23.84
2018-04-12T17:27:56.954Z,23.68
2018-04-12T17:30:28.019Z,23.50
2018-04-12T17:32:59.542Z,23.33
2018-04-12T17:35:30.668Z,23.16
2018-04-12T17:38:01.742Z,23.01
2018-04-12T17:40:32.838Z,22.91
2018-04-12T17:43:04.030Z,22.84
2018-04-12T17:45:35.800Z,22.79
2018-04-12T17:48:07.062Z,22.74
2018-04-12T17:50:39.018Z,22.68
2018-04-12T17:53:10.206Z,22.58
2018-04-12T17:55:41.722Z,22.37
2018-04-12T17:58:12.746Z,22.22
2018-04-12T18:00:43.754Z,22.09
2018-04-12T18:03:14.730Z,22.01
2018-04-12T18:05:45.899Z,22.04
2018-04-12T18:08:16.973Z,22.01
2018-04-12T18:10:48.004Z,22.01
2018-04-12T18:13:19.023Z,22.04
2018-04-12T18:15:50.003Z,22.00
2018-04-12T18:18:21.089Z,22.02
2018-04-12T18:20:52.104Z,22.06
2018-04-12T18:23:23.114Z,22.10
2018-04-12T18:25:54.090Z,22.16
2018-04-12T18:28:25.174Z,22.06
2018-04-12T18:30:56.235Z,22.14
2018-04-12T18:33:27.288Z,22.16
2018-04-12T18:35:58.327Z,22.17
2018-04-12T18:38:29.290Z,22.14
2018-04-12T18:41:00.324Z,22.11
2018-04-12T18:43:31.368Z,22.04
2018-04-12T18:46:02.335Z,21.93
2018-04-12T18:48:33.361Z,21.84
2018-04-12T18:51:04.322Z,21.76
2018-04-12T18:53:35.403Z,21.66
2018-04-12T18:56:06.489Z,21.60
2018-04-12T18:58:37.504Z,21.50
2018-04-12T19:01:08.543Z,21.38
2018-04-12T19:03:39.577Z,21.27
2018-04-12T19:06:10.575Z,21.16
2018-04-12T19:08:41.610Z,21.04
2018-04-12T19:11:12.691Z,20.95
2018-04-12T19:13:43.678Z,20.87
2018-04-12T19:16:14.743Z,20.79
2018-04-12T19:18:45.714Z,20.64
2018-04-12T19:21:16.743Z,20.49
2018-04-12T19:23:47.785Z,20.35
2018-04-12T19:26:18.783Z,20.24
2018-04-12T19:28:49.798Z,20.10
2018-04-12T19:31:20.806Z,20.04
2018-04-12T19:33:51.784Z,20.02
2018-04-12T19:36:22.791Z,19.96
2018-04-12T19:38:53.766Z,19.89
2018-04-12T19:41:24.808Z,19.82
2018-04-12T19:43:55.809Z,19.75
2018-04-12T19:46:26.790Z,19.67
2018-04-12T19:48:57.808Z,19.61
2018-04-12T19:51:28.788Z,19.57
2018-04-12T19:53:59.772Z,19.48
2018-04-12T19:56:30.801Z,19.39
2018-04-12T19:59:01.806Z,19.26
2018-04-12T20:01:32.825Z,19.16
2018-04-12T20:04:03.846Z,19.08
2018-04-12T20:06:34.827Z,19.01
2018-04-12T20:09:05.781Z,18.94
2018-04-12T20:11:36.773Z,18.87
2018-04-12T20:14:07.773Z,18.82
2018-04-12T20:16:38.766Z,18.77
2018-04-12T20:19:09.794Z,18.71
2018-04-12T20:21:40.812Z,18.67
2018-04-12T20:24:11.815Z,18.62
2018-04-12T20:26:42.812Z,18.57
2018-04-12T20:29:13.820Z,18.53
2018-04-12T20:31:44.780Z,18.50
2018-04-12T20:34:15.761Z,18.47
2018-04-12T20:36:46.856Z,18.42
2018-04-12T20:39:17.887Z,18.34
2018-04-12T20:41:49.030Z,18.20
2018-04-12T20:44:20.058Z,18.10
2018-04-12T20:46:51.026Z,18.02
2018-04-12T20:49:21.984Z,17.95
2018-04-12T20:51:53.006Z,17.89
2018-04-12T20:54:23.988Z,17.85
2018-04-12T20:56:55.024Z,17.78
2018-04-12T20:59:26.001Z,17.75
2018-04-12T21:01:56.972Z,17.69
2018-04-12T21:04:28.044Z,17.67
2018-04-12T21:06:59.026Z,17.66
2018-04-12T21:09:30.037Z,17.63
2018-04-12T21:12:01.019Z,17.58
2018-04-12T21:14:32.083Z,17.47
2018-04-12T21:17:03.066Z,17.38
2018-04-12T21:19:34.090Z,17.31
2018-04-12T21:22:05.171Z,17.26
2018-04-12T21:24:36.202Z,17.23
2018-04-12T21:27:07.191Z,17.24
2018-04-12T21:29:38.184Z,17.25
2018-04-12T21:32:09.256Z,17.25
2018-04-12T21:34:40.300Z,17.21
2018-04-12T21:37:11.300Z,17.16
2018-04-12T21:39:42.310Z,17.11
2018-04-12T21:42:13.322Z,17.04
2018-04-12T21:44:44.311Z,17.00
2018-04-12T21:47:15.308Z,16.95
2018-04-12T21:49:46.359Z,16.91
2018-04-12T21:52:17.352Z,16.88
2018-04-12T21:54:48.330Z,16.89
2018-04-12T21:57:19.304Z,16.92
2018-04-12T21:59:50.360Z,16.92
2018-04-12T22:02:21.332Z,16.93
2018-04-12T22:04:52.350Z,16.95
2018-04-12T22:07:23.319Z,16.95
2018-04-12T22:09:54.320Z,16.97
2018-04-12T22:12:25.340Z,16.97
2018-04-12T22:14:56.325Z,16.96
2018-04-12T22:17:27.371Z,16.90
2018-04-12T22:19:58.343Z,16.92
2018-04-12T22:22:29.372Z,16.93
2018-04-12T22:25:00.345Z,16.95
2018-04-12T22:27:31.408Z,17.00
2018-04-12T22:30:02.424Z,17.04
2018-04-12T22:32:33.488Z,17.10
2018-04-12T22:35:04.498Z,17.05
2018-04-12T22:37:35.484Z,17.03
2018-04-12T22:40:06.474Z,16.93
2018-04-12T22:42:37.507Z,16.88
2018-04-12T22:45:08.516Z,16.86
2018-04-12T22:47:39.498Z,16.86
2018-04-12T22:50:10.508Z,16.88
2018-04-12T22:52:41.478Z,16.86
2018-04-12T22:55:12.474Z,16.85
2018-04-12T22:57:43.500Z,16.85
2018-04-12T23:00:16.483Z,16.80
2018-04-12T23:02:47.490Z,16.78
2018-04-12T23:05:18.527Z,16.73
2018-04-12T23:07:49.494Z,16.70
2018-04-12T23:10:20.505Z,16.67
2018-04-12T23:12:51.502Z,16.68
2018-04-12T23:15:22.458Z,16.66
2018-04-12T23:17:53.478Z,16.63
2018-04-12T23:20:24.431Z,16.56
2018-04-12T23:22:55.423Z,16.51
2018-04-12T23:25:26.428Z,16.43
2018-04-12T23:27:57.450Z,16.41
2018-04-12T23:30:28.451Z,16.40
2018-04-12T23:32:59.491Z,16.34
2018-04-12T23:35:30.537Z,16.30
2018-04-12T23:38:01.493Z,16.26
2018-04-12T23:40:32.509Z,16.24
2018-04-12T23:43:03.536Z,16.25
2018-04-12T23:45:34.555Z,16.24
2018-04-12T23:48:05.569Z,16.21
2018-04-12T23:50:36.531Z,16.18
2018-04-12T23:53:07.529Z,16.13
2018-04-12T23:55:38.512Z,16.09
2018-04-12T23:58:09.520Z,16.05
